METAR AND TAF INFORMATION
METAR FOR LOWL
ADDS - METARS form results

(0538 UTC 18 June 2021)
Data provider http://aviationweather.gov/metar/data/
 
METAR text: LOWL 180520Z 10005KT 070V130 CAVOK 22/13 Q1015 NOSIG
Conditions at: LOWL (LINZ (CIV/MIL) , AT) observed 0520 UTC 18 June 2021
Temperature: 22.0°C (72°F)
Dewpoint: 13.0°C (55°F) [RH = 57%]
Pressure (altimeter): 29.97 inches Hg (1015.0 mb)
Winds: from the E (100 degrees) at 6 MPH (5 knots; 2.6 m/s)
Visibility: 6 or more miles (10+ km)
Ceiling: ceiling and visibility are OK
Clouds: unknown
Weather: no significant weather observed at this time

METAR text: LOWL 180450Z 11003KT CAVOK 22/14 Q1015 NOSIG
Conditions at: LOWL (LINZ (CIV/MIL) , AT) observed 0450 UTC 18 June 2021
Temperature: 22.0°C (72°F)
Dewpoint: 14.0°C (57°F) [RH = 60%]
Pressure (altimeter): 29.97 inches Hg (1015.0 mb)
Winds: from the ESE (110 degrees) at 3 MPH (3 knots; 1.5 m/s)
Visibility: 6 or more miles (10+ km)
Ceiling: ceiling and visibility are OK
Clouds: unknown
Weather: no significant weather observed at this time

Forecast for: LOWL (LINZ (CIV/MIL) , AT)
Text: TAF LOWL 180515Z 1806/1906 09007KT CAVOK TX32/1814Z TN19/1903Z
Forecast period: 0600 to 1700 UTC 18 June 2021
Forecast type: FROM: standard forecast or significant change
Winds: from the E (90 degrees) at 8 MPH (7 knots; 3.6 m/s)
Visibility: 6 or more miles (10+ km)
Ceiling: unknown
Clouds: missing
Weather: no significant weather forecast for this period
Text: BECMG 1817/1819 VRB03KT
Forecast period: 1700 UTC 18 June 2021 to 0600 UTC 19 June 2021
Forecast type: BECOMING: Conditions expected to become as follows by 1900 UTC 18 June 2021
Winds: variable direction winds at 3 MPH (3 knots; 1.5 m/s)
Visibility: 6 or more miles (10+ km)
Ceiling: unknown
Clouds: missing
Weather: no significant weather forecast for this period

 AIRPORT MAP

 RUNWAY INFORMATION
Runway 09 Runway length 9843 ft Runway width 197 ft
Runway elevation 978 ft Runway displaced threshold 821 ft Runway heading 87
Runway 27 Runway length 9843 ft Runway width 197 ft
Runway elevation 963 ft Runway displaced threshold 493 ft Runway heading 267
Runway 09L Runway length 2165 ft Runway width 148 ft
Runway elevation 971 ft Runway displaced threshold 0 ft Runway heading 87
Runway 27R Runway length 2165 ft Runway width 148 ft
Runway elevation 968 ft Runway displaced threshold 0 ft Runway heading 267

 AIRPORT FREQUENCIES
Type APP Name RADAR Frequency 129.625 MHZ
Type ATIS Name ATIS Frequency 128.125 MHZ
Type TWR Name TWR Frequency 118.8 MHZ

 AIRPORT NEAR NAVIGATION AIDS



Powered by Virtual Airlines Manager [v2.6.2]

Impressum | Datenschutz